Time;durP1;ratioP1;P1;durP2;ratioP2;P2;SDS_P1;SDS_P2;PMS_P1;PMS_P2;Temp;Humidity;BMP_temperature;BMP_pressure;BME280_temperature;BME280_humidity;BME280_pressure;Samples;Min_cycle;Max_cycle;Signal;HPM_P1;HPM_P2
2023/05/24 00:02:59;;;;;;;4.33;3.93;;;;;;;14.53;83.04;97675.75;6217141;28;20748;-46
2023/05/24 00:06:05;;;;;;;5.33;4.77;;;;;;;14.57;82.82;97687.53;6213957;28;20582;-43
2023/05/24 00:09:08;;;;;;;11.20;4.93;;;;;;;14.55;82.66;97687.00;6210429;28;20232;-45
2023/05/24 00:12:10;;;;;;;5.10;4.60;;;;;;;14.44;83.37;97691.53;6212389;28;20230;-44
2023/05/24 00:15:12;;;;;;;5.63;4.53;;;;;;;14.38;83.47;97678.38;6215251;28;20212;-42
2023/05/24 00:18:16;;;;;;;4.77;4.10;;;;;;;14.44;83.17;97685.38;6212515;28;20232;-44
2023/05/24 00:21:19;;;;;;;4.67;4.07;;;;;;;14.41;82.87;97685.88;6211137;28;20220;-44
2023/05/24 00:24:22;;;;;;;4.27;3.87;;;;;;;14.29;82.13;97661.22;6216732;28;20274;-44
2023/05/24 00:27:25;;;;;;;6.67;4.30;;;;;;;14.51;82.21;97685.13;6197794;28;20765;-45
2023/05/24 00:30:27;;;;;;;4.47;4.03;;;;;;;14.45;82.58;97695.00;6217123;28;20710;-45
2023/05/24 00:33:29;;;;;;;5.73;4.40;;;;;;;14.40;83.19;97692.31;6214285;28;20231;-43
2023/05/24 00:36:32;;;;;;;4.47;3.80;;;;;;;14.43;82.35;97692.59;6215267;28;20248;-45
2023/05/24 00:39:34;;;;;;;4.43;4.03;;;;;;;14.15;82.16;97660.94;6212819;28;20224;-44
2023/05/24 00:42:37;;;;;;;3.90;3.60;;;;;;;14.35;81.30;97690.44;6213919;28;20282;-44
2023/05/24 00:45:39;;;;;;;5.00;3.73;;;;;;;14.32;82.03;97690.94;6210674;28;20228;-45
2023/05/24 00:48:43;;;;;;;4.87;4.03;;;;;;;14.29;82.00;97694.19;6219740;28;20236;-45
2023/05/24 00:51:47;;;;;;;5.03;3.40;;;;;;;14.27;82.15;97703.53;6220442;28;20243;-44
2023/05/24 00:54:49;;;;;;;3.50;3.20;;;;;;;14.11;83.30;97690.13;6218845;28;20707;-46
2023/05/24 00:57:53;;;;;;;3.80;3.40;;;;;;;14.18;84.04;97700.56;6218717;28;20333;-43
2023/05/24 01:01:01;;;;;;;6.30;3.53;;;;;;;13.91;85.81;97687.38;6220922;28;20704;-44
2023/05/24 01:04:04;;;;;;;3.60;3.30;;;;;;;13.87;86.44;97705.03;6218764;28;20291;-45
2023/05/24 01:07:45;;;;;;;4.70;3.33;;;;;;;13.81;87.33;97700.72;6217206;28;20259;-40
2023/05/24 01:11:03;;;;;;;3.47;3.17;;;;;;;13.65;87.66;97702.53;6196714;28;20367;-42
2023/05/24 01:14:21;;;;;;;6.57;3.80;;;;;;;13.58;88.05;97700.09;6214839;28;20240;-47
2023/05/24 01:18:06;;;;;;;3.80;3.50;;;;;;;13.48;88.32;97704.59;6217089;28;20229;-43
2023/05/24 01:21:11;;;;;;;5.27;3.30;;;;;;;13.41;88.36;97715.53;6216470;28;20232;-46
2023/05/24 01:24:52;;;;;;;4.43;3.17;;;;;;;13.31;88.42;97697.53;6217480;28;20219;-47
2023/05/24 01:27:55;;;;;;;4.40;4.00;;;;;;;13.20;89.02;97700.38;6214520;28;20306;-44
2023/05/24 01:30:59;;;;;;;3.73;3.43;;;;;;;13.14;89.12;97692.31;6220054;28;20235;-44
2023/05/24 01:34:01;;;;;;;5.83;3.70;;;;;;;13.08;89.17;97695.22;6218607;28;20732;-43
2023/05/24 01:37:03;;;;;;;3.97;3.67;;;;;;;13.02;89.42;97701.59;6221198;28;20254;-46
2023/05/24 01:40:07;;;;;;;4.37;3.47;;;;;;;12.94;89.98;97697.53;6220338;28;20236;-45
2023/05/24 01:43:30;;;;;;;4.60;4.10;;;;;;;12.94;90.08;97694.84;6216718;28;20771;-43
2023/05/24 01:46:39;;;;;;;6.00;4.30;;;;;;;12.86;90.13;97679.31;6219904;28;20236;-41
2023/05/24 01:49:48;;;;;;;5.20;4.70;;;;;;;12.96;89.25;97679.38;6216118;28;20236;-44
2023/05/24 01:52:52;;;;;;;5.53;4.13;;;;;;;12.99;88.85;97686.88;6218740;28;20236;-45
2023/05/24 01:55:57;;;;;;;4.70;4.27;;;;;;;13.00;88.75;97687.66;6199724;28;20239;-46
2023/05/24 01:59:01;;;;;;;5.43;4.10;;;;;;;12.92;88.92;97688.97;6200942;28;20220;-44
2023/05/24 02:02:03;;;;;;;7.77;4.20;;;;;;;12.82;89.92;97695.03;6199817;28;20235;-43
2023/05/24 02:05:06;;;;;;;5.03;4.53;;;;;;;12.75;89.67;97699.78;6213357;28;20236;-42
2023/05/24 02:08:09;;;;;;;5.40;3.97;;;;;;;12.67;89.94;97697.59;6217056;28;20251;-41
2023/05/24 02:11:11;;;;;;;4.77;3.70;;;;;;;12.57;90.08;97700.19;6217654;28;20240;-43
2023/05/24 02:14:16;;;;;;;6.40;4.33;;;;;;;12.46;90.53;97693.09;6208108;28;20236;-42
2023/05/24 02:17:18;;;;;;;6.43;4.67;;;;;;;12.30;90.96;97694.84;6220237;28;20235;-45
2023/05/24 02:20:24;;;;;;;5.57;4.13;;;;;;;12.24;91.12;97698.53;6214611;28;20699;-44
2023/05/24 02:23:26;;;;;;;4.37;3.97;;;;;;;12.23;91.18;97710.25;6218164;28;20236;-46
2023/05/24 02:26:29;;;;;;;5.33;4.47;;;;;;;12.22;91.93;97711.34;6227910;28;20215;-44
2023/05/24 02:29:32;;;;;;;6.30;4.57;;;;;;;12.33;91.54;97707.69;6218579;28;20234;-45
2023/05/24 02:32:35;;;;;;;5.07;4.33;;;;;;;12.33;91.51;97705.84;6216136;28;20247;-46
2023/05/24 02:35:40;;;;;;;6.13;4.20;;;;;;;12.18;91.60;97689.66;6217163;28;20270;-44
2023/05/24 02:38:42;;;;;;;4.27;3.80;;;;;;;12.30;91.24;97716.19;6216551;28;20232;-42
2023/05/24 02:41:48;;;;;;;6.27;4.77;;;;;;;12.05;91.80;97682.03;6203362;28;20707;-41
2023/05/24 02:44:51;;;;;;;4.70;3.63;;;;;;;12.25;91.43;97714.28;6215659;28;20745;-45
2023/05/24 02:47:53;;;;;;;4.87;4.10;;;;;;;12.25;91.22;97711.63;6215778;28;20453;-42
2023/05/24 02:50:56;;;;;;;3.77;3.47;;;;;;;12.20;91.79;97714.22;6216910;28;20327;-44
2023/05/24 02:53:58;;;;;;;4.93;3.30;;;;;;;12.14;91.89;97718.72;6218061;28;20231;-42
2023/05/24 02:57:05;;;;;;;5.67;3.93;;;;;;;12.06;91.97;97713.81;6213090;28;20220;-45
2023/05/24 03:00:10;;;;;;;4.47;3.90;;;;;;;12.05;92.13;97722.06;6214232;28;20232;-43
2023/05/24 03:03:14;;;;;;;5.07;4.57;;;;;;;11.85;92.51;97711.97;6213153;28;20773;-42
2023/05/24 03:06:17;;;;;;;4.50;3.87;;;;;;;11.94;92.37;97725.69;6213351;28;20278;-43
2023/05/24 03:09:20;;;;;;;6.13;4.20;;;;;;;11.89;92.85;97742.47;6200032;28;20299;-45
2023/05/24 03:12:23;;;;;;;3.87;3.57;;;;;;;11.71;92.75;97718.69;6213113;28;20228;-45
2023/05/24 03:15:25;;;;;;;5.13;4.63;;;;;;;11.79;92.68;97734.28;6200282;28;20232;-44
2023/05/24 03:18:28;;;;;;;5.07;4.23;;;;;;;11.87;92.66;97744.56;6214877;28;20591;-43
2023/05/24 03:21:31;;;;;;;6.93;4.37;;;;;;;11.94;92.03;97742.53;6198025;28;20224;-44
2023/05/24 03:24:34;;;;;;;6.33;3.93;;;;;;;11.99;91.46;97758.59;6217815;28;20238;-46
2023/05/24 03:27:36;;;;;;;4.97;4.07;;;;;;;12.04;91.38;97733.81;6197801;28;20235;-44
2023/05/24 03:30:39;;;;;;;4.43;4.03;;;;;;;12.03;90.75;97729.53;6215309;28;20236;-43
2023/05/24 03:33:41;;;;;;;4.67;4.27;;;;;;;12.09;90.17;97725.88;6213904;28;20703;-44
2023/05/24 03:36:43;;;;;;;4.40;3.80;;;;;;;12.23;88.68;97721.75;6217734;28;20242;-46
2023/05/24 03:39:46;;;;;;;3.87;3.50;;;;;;;12.36;86.80;97726.72;6197523;28;20231;-45
2023/05/24 03:43:05;;;;;;;4.40;3.33;;;;;;;12.39;86.71;97731.53;6212086;28;20788;-43
2023/05/24 03:46:16;;;;;;;3.93;3.50;;;;;;;12.39;86.67;97726.19;6213608;28;20240;-46
2023/05/24 03:49:19;;;;;;;5.30;3.90;;;;;;;12.37;87.60;97728.31;6211085;28;20279;-44
2023/05/24 03:52:21;;;;;;;3.90;3.40;;;;;;;12.11;85.57;97673.81;6214979;28;20236;-43
2023/05/24 03:55:24;;;;;;;4.10;3.70;;;;;;;12.51;85.07;97734.06;6216396;28;20242;-43
2023/05/24 03:58:26;;;;;;;3.63;3.30;;;;;;;12.42;85.52;97732.09;6214595;28;20236;-42
2023/05/24 04:01:32;;;;;;;3.50;3.20;;;;;;;12.42;86.89;97751.59;6211004;28;20264;-41
2023/05/24 04:04:36;;;;;;;3.57;3.07;;;;;;;12.46;85.47;97751.88;6214196;28;20228;-44
2023/05/24 04:07:38;;;;;;;6.50;3.60;;;;;;;12.34;85.71;97734.16;6197826;28;20813;-44
2023/05/24 04:10:41;;;;;;;6.00;2.83;;;;;;;12.47;86.50;97748.19;6197123;28;20223;-41
2023/05/24 04:13:45;;;;;;;3.73;3.23;;;;;;;12.48;85.89;97758.59;6217887;28;20219;-40
2023/05/24 04:16:47;;;;;;;3.33;2.80;;;;;;;12.53;85.29;97765.88;6215157;28;20326;-45
2023/05/24 04:19:52;;;;;;;3.30;3.00;;;;;;;12.50;86.49;97772.50;6197867;28;20240;-42
2023/05/24 04:22:55;;;;;;;4.00;2.90;;;;;;;12.50;85.47;97777.84;6215556;28;20885;-42
2023/05/24 04:25:57;;;;;;;3.27;2.77;;;;;;;12.57;84.60;97775.81;6217344;28;20243;-43
2023/05/24 04:29:00;;;;;;;3.27;2.97;;;;;;;12.70;83.93;97771.91;6222932;28;20243;-43
2023/05/24 04:32:03;;;;;;;3.23;2.77;;;;;;;12.60;86.12;97777.97;6197325;28;20244;-42
2023/05/24 04:35:06;;;;;;;5.07;3.17;;;;;;;12.34;86.54;97738.69;6197828;28;20246;-46
2023/05/24 04:38:11;;;;;;;3.37;3.07;;;;;;;12.69;84.48;97774.84;6213653;28;20747;-45
2023/05/24 04:41:13;;;;;;;3.90;2.60;;;;;;;12.75;85.13;97768.47;6210423;28;20306;-44
2023/05/24 04:44:16;;;;;;;4.20;3.13;;;;;;;12.73;84.92;97768.75;6215787;28;20220;-46
2023/05/24 04:47:18;;;;;;;3.40;3.10;;;;;;;12.73;84.57;97782.09;6214507;28;20261;-42
2023/05/24 04:50:20;;;;;;;4.73;2.80;;;;;;;12.72;83.84;97779.69;6211472;28;20233;-43
2023/05/24 04:53:24;;;;;;;4.67;3.03;;;;;;;12.92;83.06;97777.19;6210003;28;20316;-43
2023/05/24 04:56:26;;;;;;;3.00;2.70;;;;;;;12.94;82.88;97769.72;6214325;28;20314;-42
2023/05/24 04:59:28;;;;;;;3.17;2.87;;;;;;;12.97;82.77;97776.44;6214589;28;20232;-45
2023/05/24 05:02:31;;;;;;;2.53;2.10;;;;;;;12.98;83.26;97791.41;6214395;28;20235;-42
2023/05/24 05:05:34;;;;;;;4.63;2.80;;;;;;;12.86;83.79;97783.56;6207667;28;20239;-44
2023/05/24 05:08:36;;;;;;;2.43;2.23;;;;;;;13.01;83.40;97807.78;6213626;28;20699;-45
2023/05/24 05:11:39;;;;;;;2.57;2.37;;;;;;;12.99;83.07;97804.53;6210569;28;20320;-44
2023/05/24 05:14:41;;;;;;;2.60;2.40;;;;;;;13.04;83.07;97814.47;6215781;28;20347;-42
2023/05/24 05:17:44;;;;;;;3.73;2.70;;;;;;;13.04;82.74;97801.91;6214345;28;20272;-44
2023/05/24 05:20:46;;;;;;;3.73;2.90;;;;;;;13.19;82.09;97803.88;6216460;28;20236;-42
2023/05/24 05:23:49;;;;;;;4.23;2.97;;;;;;;13.18;81.55;97804.97;6213315;28;20286;-43
2023/05/24 05:26:51;;;;;;;2.67;2.43;;;;;;;13.20;82.40;97812.72;6215791;28;20373;-44
2023/05/24 05:29:53;;;;;;;3.40;3.10;;;;;;;13.22;81.65;97816.78;6215352;28;20239;-43
2023/05/24 05:32:55;;;;;;;3.20;2.63;;;;;;;13.27;82.00;97827.53;6218961;28;20240;-43
2023/05/24 05:35:59;;;;;;;3.60;3.30;;;;;;;13.34;81.13;97825.44;6219930;28;20231;-45
2023/05/24 05:39:01;;;;;;;3.20;2.90;;;;;;;13.38;81.30;97821.19;6218085;28;20239;-45
2023/05/24 05:42:04;;;;;;;3.60;3.07;;;;;;;13.45;80.26;97817.50;6218419;28;20285;-42
2023/05/24 05:45:07;;;;;;;3.57;3.27;;;;;;;13.42;80.42;97824.97;6219269;28;20216;-43
2023/05/24 05:48:09;;;;;;;3.50;3.20;;;;;;;13.47;79.64;97829.56;6215370;28;20326;-47
2023/05/24 05:51:11;;;;;;;3.47;3.17;;;;;;;13.45;79.82;97826.34;6216802;28;20236;-45
2023/05/24 05:54:15;;;;;;;4.80;3.50;;;;;;;13.39;80.31;97825.47;6218633;28;20247;-43
2023/05/24 05:57:22;;;;;;;3.20;2.90;;;;;;;13.50;80.67;97837.09;6218173;28;20247;-45
2023/05/24 06:00:25;;;;;;;3.20;3.00;;;;;;;13.64;79.22;97824.88;6216938;28;20243;-43
2023/05/24 06:03:27;;;;;;;3.70;3.40;;;;;;;13.81;78.93;97821.22;6194398;28;20237;-45
2023/05/24 06:06:30;;;;;;;3.40;2.50;;;;;;;13.95;79.16;97822.38;6187053;28;20598;-42
2023/05/24 06:09:32;;;;;;;3.13;2.83;;;;;;;14.09;77.42;97836.13;6193504;28;20296;-46
2023/05/24 06:12:35;;;;;;;3.40;3.10;;;;;;;14.06;77.21;97834.75;6193378;28;20228;-41
2023/05/24 06:15:37;;;;;;;4.03;3.23;;;;;;;14.01;77.04;97836.59;6194714;28;20228;-45
2023/05/24 06:18:39;;;;;;;3.07;2.83;;;;;;;14.08;75.84;97840.66;6193688;28;20231;-45
2023/05/24 06:21:54;;;;;;;4.87;3.20;;;;;;;14.09;76.13;97838.81;6194094;28;20493;-42
2023/05/24 06:24:56;;;;;;;3.13;2.77;;;;;;;14.09;77.13;97841.47;6198908;28;20311;-45
2023/05/24 06:27:59;;;;;;;2.90;2.70;;;;;;;14.25;76.92;97845.03;6199041;28;20286;-43
2023/05/24 06:31:02;;;;;;;2.77;2.57;;;;;;;14.28;76.00;97847.16;6193045;28;20240;-44
2023/05/24 06:34:05;;;;;;;3.77;3.10;;;;;;;14.17;76.52;97844.44;6192220;28;20585;-44
2023/05/24 06:37:09;;;;;;;4.70;3.37;;;;;;;13.96;76.25;97825.88;6194374;28;20233;-42
2023/05/24 06:40:11;;;;;;;3.57;3.27;;;;;;;13.92;77.15;97831.72;6193699;28;20378;-46
2023/05/24 06:43:15;;;;;;;4.53;3.33;;;;;;;14.09;75.61;97838.81;6192309;28;20315;-41
2023/05/24 06:46:17;;;;;;;4.07;3.30;;;;;;;14.06;75.73;97815.19;6194493;28;20340;-42
2023/05/24 06:49:21;;;;;;;3.00;2.80;;;;;;;14.38;76.09;97855.25;6196833;28;20587;-42
2023/05/24 06:52:24;;;;;;;2.80;2.40;;;;;;;14.79;73.48;97847.41;6192414;28;20243;-42
2023/05/24 06:55:26;;;;;;;3.40;3.10;;;;;;;14.60;72.27;97822.94;6191670;28;20237;-43
2023/05/24 06:58:28;;;;;;;2.57;2.37;;;;;;;14.78;72.45;97851.13;6195215;28;20307;-43
2023/05/24 07:01:32;;;;;;;2.50;2.30;;;;;;;14.60;72.31;97841.72;6175721;28;20323;-43
2023/05/24 07:04:35;;;;;;;2.47;2.27;;;;;;;14.52;71.36;97844.88;6190668;28;20311;-45
2023/05/24 07:07:42;;;;;;;3.33;2.00;;;;;;;14.58;72.17;97874.16;6192364;28;20233;-43
2023/05/24 07:10:44;;;;;;;2.47;2.27;;;;;;;14.71;71.10;97870.16;6194665;28;20228;-43
2023/05/24 07:13:46;;;;;;;2.20;1.97;;;;;;;14.79;72.97;97874.22;6190547;28;20782;-42
2023/05/24 07:16:49;;;;;;;2.23;2.13;;;;;;;14.99;72.62;97868.09;6191585;28;20243;-42
2023/05/24 07:19:51;;;;;;;2.60;2.33;;;;;;;15.08;72.14;97872.69;6192866;28;20299;-41
2023/05/24 07:22:53;;;;;;;4.10;2.27;;;;;;;15.01;70.81;97880.16;6194483;28;20263;-45
2023/05/24 07:25:56;;;;;;;3.97;2.60;;;;;;;14.95;70.63;97886.59;6188654;28;20778;-42
2023/05/24 07:28:58;;;;;;;1.97;1.87;;;;;;;14.78;71.88;97876.09;6193026;28;20283;-45
2023/05/24 07:32:00;;;;;;;2.53;2.33;;;;;;;14.73;72.63;97883.28;6192740;28;20245;-42
2023/05/24 07:35:03;;;;;;;2.10;2.00;;;;;;;14.78;71.63;97886.00;6192293;28;20639;-43
2023/05/24 07:38:05;;;;;;;2.37;2.17;;;;;;;14.90;70.59;97854.38;6186716;28;20391;-44
2023/05/24 07:41:08;;;;;;;2.80;2.60;;;;;;;14.97;71.38;97887.13;6192184;28;20242;-42
2023/05/24 07:44:12;;;;;;;2.60;2.40;;;;;;;14.87;70.96;97881.72;6189806;28;20331;-43
2023/05/24 07:47:14;;;;;;;3.10;2.30;;;;;;;14.91;71.32;97902.41;6194073;28;20231;-46
2023/05/24 07:50:17;;;;;;;2.53;2.33;;;;;;;14.95;71.39;97900.81;6187272;28;20244;-45
2023/05/24 07:53:21;;;;;;;2.37;2.17;;;;;;;14.84;71.95;97896.50;6192480;28;20355;-43
2023/05/24 07:56:24;;;;;;;2.50;2.30;;;;;;;14.87;71.59;97901.31;6193500;28;20225;-41
2023/05/24 07:59:27;;;;;;;3.53;2.20;;;;;;;14.90;71.95;97908.84;6189838;28;20232;-43
2023/05/24 08:02:30;;;;;;;2.90;2.60;;;;;;;14.94;71.03;97915.28;6203688;28;20317;-40
2023/05/24 08:05:32;;;;;;;2.17;1.97;;;;;;;14.92;70.71;97913.94;6215864;28;20323;-43
2023/05/24 08:08:35;;;;;;;2.83;2.43;;;;;;;15.04;69.63;97909.16;6215099;28;20224;-43
2023/05/24 08:11:37;;;;;;;2.20;2.00;;;;;;;14.94;71.13;97893.84;6211492;28;20319;-43
2023/05/24 08:14:39;;;;;;;2.33;2.00;;;;;;;15.02;69.75;97905.91;6211032;28;20231;-43
2023/05/24 08:17:42;;;;;;;3.27;2.20;;;;;;;15.15;69.49;97907.28;6216010;28;20228;-45
2023/05/24 08:20:44;;;;;;;2.20;2.00;;;;;;;15.30;65.57;97874.31;6215517;28;20224;-44
2023/05/24 08:23:46;;;;;;;1.90;1.80;;;;;;;15.54;66.17;97907.59;6214030;28;20246;-41
2023/05/24 08:26:50;;;;;;;2.00;1.80;;;;;;;15.58;67.92;97910.56;6215929;28;20247;-42
2023/05/24 08:29:53;;;;;;;2.30;2.10;;;;;;;15.60;69.53;97876.97;6214913;28;20236;-46
2023/05/24 08:32:57;;;;;;;3.33;1.70;;;;;;;16.04;69.42;97902.50;6213561;28;20247;-43
2023/05/24 08:36:00;;;;;;;2.13;1.60;;;;;;;16.17;66.28;97905.44;6210992;28;20240;-42
2023/05/24 08:39:04;;;;;;;3.20;1.80;;;;;;;16.24;66.53;97905.16;6214561;28;20311;-43
2023/05/24 08:42:06;;;;;;;1.97;1.70;;;;;;;16.17;65.87;97877.75;6221959;28;20223;-46
2023/05/24 08:45:12;;;;;;;1.87;1.77;;;;;;;16.33;64.70;97857.81;6216782;28;20366;-45
2023/05/24 08:48:17;;;;;;;1.80;1.70;;;;;;;16.59;65.17;97901.53;6215249;28;20223;-42
2023/05/24 08:51:19;;;;;;;2.53;1.63;;;;;;;16.58;63.90;97902.63;6214065;28;20290;-42
2023/05/24 08:54:23;;;;;;;2.00;1.90;;;;;;;16.32;63.24;97890.34;6211392;28;20731;-41
2023/05/24 08:57:31;;;;;;;2.67;1.77;;;;;;;16.52;64.88;97895.66;6215349;28;20236;-43
2023/05/24 09:00:33;;;;;;;1.73;1.63;;;;;;;16.51;64.39;97876.03;6213749;28;20238;-44
2023/05/24 09:03:37;;;;;;;1.33;1.23;;;;;;;16.58;64.82;97905.31;6213846;28;20259;-41
2023/05/24 09:06:40;;;;;;;2.40;1.57;;;;;;;16.58;64.05;97912.56;6218192;28;20771;-44
2023/05/24 09:09:48;;;;;;;3.67;2.10;;;;;;;16.37;65.16;97918.03;6215207;28;20234;-45
2023/05/24 09:12:55;;;;;;;2.47;2.27;;;;;;;16.20;65.91;97901.38;6218249;28;20357;-44
2023/05/24 09:15:58;;;;;;;2.10;1.90;;;;;;;16.32;66.74;97895.72;6220237;28;20692;-43
2023/05/24 09:19:02;;;;;;;2.47;1.80;;;;;;;16.52;64.30;97925.25;6219164;28;20237;-42
2023/05/24 09:22:05;;;;;;;1.63;1.53;;;;;;;16.44;66.74;97913.16;6217603;28;20409;-45
2023/05/24 09:25:11;;;;;;;2.10;1.93;;;;;;;16.48;63.42;97926.84;6217488;28;20232;-42
2023/05/24 09:28:16;;;;;;;1.43;1.33;;;;;;;16.15;65.29;97915.63;6214852;28;20266;-44
2023/05/24 09:31:30;;;;;;;2.90;1.37;;;;;;;16.22;65.61;97921.56;6217877;28;20235;-44
2023/05/24 09:34:43;;;;;;;2.30;2.10;;;;;;;16.25;65.24;97896.81;6214678;28;20581;-43
2023/05/24 09:37:46;;;;;;;3.13;1.80;;;;;;;16.61;65.44;97922.78;6215133;28;20229;-42
2023/05/24 09:41:02;;;;;;;2.70;2.50;;;;;;;16.75;66.39;97918.47;6219517;28;20286;-45
2023/05/24 09:44:06;;;;;;;2.30;2.10;;;;;;;16.65;64.03;97924.66;6216150;28;20231;-41
2023/05/24 09:47:08;;;;;;;2.50;2.13;;;;;;;16.48;64.24;97926.84;6217250;28;20313;-45
2023/05/24 09:50:13;;;;;;;2.53;2.33;;;;;;;16.56;63.71;97929.00;6201803;28;20217;-44
2023/05/24 09:53:18;;;;;;;2.10;1.90;;;;;;;16.64;64.06;97920.34;6219215;28;20279;-43
2023/05/24 09:56:22;;;;;;;2.40;2.17;;;;;;;16.65;62.39;97921.97;6217108;28;20232;-42
2023/05/24 09:59:26;;;;;;;3.80;2.13;;;;;;;16.38;65.02;97918.81;6219390;28;20232;-43
2023/05/24 10:02:29;;;;;;;2.80;2.47;;;;;;;16.62;64.41;97902.88;6222238;28;20887;-41
2023/05/24 10:05:45;;;;;;;3.03;2.67;;;;;;;16.83;63.36;97917.88;6213095;28;20358;-43
2023/05/24 10:08:49;;;;;;;2.17;2.00;;;;;;;16.91;64.99;97916.50;6219103;28;20755;-45
2023/05/24 10:11:51;;;;;;;3.07;1.97;;;;;;;16.92;62.41;97912.72;6218407;28;20248;-46
2023/05/24 10:14:56;;;;;;;4.10;2.10;;;;;;;17.10;60.96;97922.06;6217357;28;20229;-43
2023/05/24 10:18:07;;;;;;;4.47;2.50;;;;;;;17.01;60.68;97919.16;6218125;28;20317;-41
2023/05/24 10:21:15;;;;;;;2.20;2.00;;;;;;;16.91;61.46;97911.13;6221616;28;20239;-42
2023/05/24 10:24:20;;;;;;;2.50;2.30;;;;;;;16.88;62.09;97917.84;6219643;28;20729;-42
2023/05/24 10:27:29;;;;;;;2.43;2.20;;;;;;;16.97;62.97;97923.47;6211736;28;20714;-42
2023/05/24 10:30:43;;;;;;;2.40;2.20;;;;;;;17.02;60.36;97904.59;6213382;28;20240;-42
2023/05/24 10:33:47;;;;;;;3.00;2.23;;;;;;;16.92;60.60;97899.28;6209279;28;20606;-41
2023/05/24 10:36:50;;;;;;;2.27;1.90;;;;;;;16.97;62.96;97912.69;6219202;28;20217;-41
2023/05/24 10:39:53;;;;;;;3.10;2.13;;;;;;;17.12;61.88;97926.06;6224161;28;20728;-43
2023/05/24 10:42:56;;;;;;;2.03;1.93;;;;;;;17.24;62.46;97925.72;6218173;28;20239;-43
2023/05/24 10:46:03;;;;;;;2.60;2.10;;;;;;;17.28;60.97;97924.88;6217325;28;20714;-44
2023/05/24 10:49:06;;;;;;;4.00;1.93;;;;;;;17.46;62.46;97928.03;6216776;28;21148;-43
2023/05/24 10:52:09;;;;;;;2.07;1.93;;;;;;;17.67;57.95;97923.28;6212849;28;20235;-43
2023/05/24 10:55:12;;;;;;;3.03;1.70;;;;;;;17.53;59.82;97931.19;6217006;28;20755;-43
2023/05/24 10:58:14;;;;;;;2.07;1.87;;;;;;;17.36;58.53;97928.09;6217677;28;20259;-42
2023/05/24 11:01:27;;;;;;;2.27;2.07;;;;;;;17.20;59.88;97947.03;6215256;28;20239;-45
2023/05/24 11:04:35;;;;;;;1.80;1.70;;;;;;;17.38;58.51;97934.78;6212859;28;20240;-41
2023/05/24 11:07:44;;;;;;;2.07;1.67;;;;;;;17.32;57.92;97905.50;6217701;28;20287;-44
2023/05/24 11:10:46;;;;;;;2.13;1.80;;;;;;;17.50;58.55;97911.03;6220205;28;20243;-44
2023/05/24 11:13:54;;;;;;;1.97;1.87;;;;;;;17.75;61.15;97925.41;6217471;28;20250;-43
2023/05/24 11:17:01;;;;;;;3.60;1.90;;;;;;;18.28;57.93;97926.28;6213764;28;20404;-44
2023/05/24 11:20:07;;;;;;;3.60;2.13;;;;;;;17.73;54.93;97901.44;6214743;28;20232;-47
2023/05/24 11:23:10;;;;;;;2.00;1.80;;;;;;;17.54;56.36;97936.31;6215152;28;20227;-41
2023/05/24 11:26:13;;;;;;;3.37;1.67;;;;;;;17.36;56.43;97920.00;6215503;28;20250;-44
2023/05/24 11:29:17;;;;;;;3.50;1.90;;;;;;;17.25;56.17;97912.00;6216362;28;20258;-43
2023/05/24 11:32:20;;;;;;;2.30;2.00;;;;;;;17.56;55.50;97927.16;6218051;28;20331;-41
2023/05/24 11:35:26;;;;;;;3.77;2.10;;;;;;;17.29;55.43;97914.94;6216864;28;20339;-41
2023/05/24 11:38:28;;;;;;;2.30;2.10;;;;;;;17.44;57.10;97922.94;6216093;28;20227;-44
2023/05/24 11:41:35;;;;;;;2.80;2.13;;;;;;;17.64;56.47;97919.28;6215351;28;20236;-44
2023/05/24 11:44:38;;;;;;;3.53;2.00;;;;;;;17.47;56.51;97932.31;6219307;28;20224;-45
2023/05/24 11:47:40;;;;;;;3.27;1.57;;;;;;;17.27;56.68;97928.69;6227982;28;20307;-47
2023/05/24 11:50:47;;;;;;;2.23;1.63;;;;;;;17.27;57.23;97927.88;6219840;28;20240;-45
2023/05/24 11:53:51;;;;;;;1.60;1.50;;;;;;;17.36;55.98;97928.09;6218325;28;20235;-47
2023/05/24 11:56:56;;;;;;;2.33;1.83;;;;;;;17.51;54.85;97931.47;6219159;28;20233;-46
2023/05/24 11:59:59;;;;;;;2.10;1.80;;;;;;;17.54;53.79;97924.75;6220973;28;20235;-45
2023/05/24 12:03:06;;;;;;;1.83;1.60;;;;;;;17.34;55.28;97922.16;6217542;28;20255;-45
2023/05/24 12:06:08;;;;;;;2.13;1.70;;;;;;;17.32;56.37;97914.38;6212847;28;20224;-44
2023/05/24 12:09:12;;;;;;;2.30;1.77;;;;;;;17.50;56.65;97926.38;6219578;28;20220;-44
2023/05/24 12:12:14;;;;;;;2.90;1.87;;;;;;;17.37;56.66;97927.00;6217823;28;20227;-45
2023/05/24 12:15:17;;;;;;;3.47;1.80;;;;;;;17.43;56.45;97936.66;6220406;28;20207;-44
2023/05/24 12:18:21;;;;;;;2.80;1.77;;;;;;;17.09;57.67;97931.19;6213924;28;20235;-44
2023/05/24 12:21:23;;;;;;;1.90;1.80;;;;;;;16.96;58.76;97927.25;6219738;28;20242;-42
2023/05/24 12:24:27;;;;;;;2.40;1.90;;;;;;;17.05;57.57;97922.91;6220660;28;20377;-45
2023/05/24 12:27:30;;;;;;;2.50;1.60;;;;;;;16.71;58.05;97893.16;6218482;28;20251;-44
2023/05/24 12:30:32;;;;;;;2.60;1.57;;;;;;;16.74;59.28;97916.84;6218364;28;20235;-43
2023/05/24 12:33:34;;;;;;;3.47;1.70;;;;;;;16.74;59.43;97904.19;6218506;28;20240;-46
2023/05/24 12:36:37;;;;;;;3.83;1.80;;;;;;;16.71;58.74;97903.94;6218169;28;20235;-44
2023/05/24 12:39:41;;;;;;;3.83;1.77;;;;;;;16.82;58.19;97905.50;6217982;28;20718;-44
2023/05/24 12:42:56;;;;;;;3.40;1.87;;;;;;;16.95;60.23;97917.56;6214440;28;20232;-46
2023/05/24 12:45:59;;;;;;;2.23;1.43;;;;;;;16.96;62.46;97914.59;6215338;28;20243;-45
2023/05/24 12:49:03;;;;;;;3.37;1.97;;;;;;;16.97;60.27;97920.78;6214266;28;20236;-47
2023/05/24 12:52:06;;;;;;;2.27;1.70;;;;;;;17.07;59.30;97923.41;6219345;28;20287;-44
2023/05/24 12:55:08;;;;;;;3.13;1.77;;;;;;;16.96;60.00;97919.97;6219447;28;20227;-45
2023/05/24 12:58:15;;;;;;;2.73;1.70;;;;;;;16.84;60.39;97918.69;6217726;28;20305;-46
2023/05/24 13:01:18;;;;;;;3.40;1.80;;;;;;;16.85;58.81;97920.31;6214550;28;20241;-46
2023/05/24 13:04:23;;;;;;;3.27;1.90;;;;;;;16.82;59.96;97916.28;6213407;28;20366;-44
2023/05/24 13:07:25;;;;;;;3.10;1.90;;;;;;;15.15;58.70;97671.16;6237369;23;20326;-90
2023/05/24 13:10:28;;;;;;;3.10;1.93;;;;;;;13.99;61.40;97453.03;6197057;28;20290;-90
2023/05/24 13:13:31;;;;;;;3.53;2.10;;;;;;;17.08;57.39;97879.25;6211130;28;20263;-90
2023/05/24 13:16:34;;;;;;;2.50;1.50;;;;;;;16.61;57.96;97842.09;6199719;28;20589;-89
2023/05/24 13:19:37;;;;;;;3.67;2.10;;;;;;;15.89;58.22;97726.00;6233389;28;20246;-89
2023/05/24 13:22:39;;;;;;;2.00;1.80;;;;;;;15.66;57.68;97676.41;6206968;28;20240;-87
2023/05/24 13:25:41;;;;;;;2.30;2.07;;;;;;;16.24;58.02;97789.56;6213173;28;20240;-90
2023/05/24 13:28:44;;;;;;;4.40;1.60;;;;;;;15.91;58.55;97742.66;6210303;28;20689;-89
2023/05/24 13:32:06;;;;;;;3.00;1.70;;;;;;;16.17;57.93;97811.38;6242954;28;20220;-90
2023/05/24 13:35:09;;;;;;;1.80;1.70;;;;;;;16.26;59.53;97846.56;6228370;28;20225;-90
2023/05/24 13:38:12;;;;;;;1.60;1.50;;;;;;;16.45;60.14;97841.34;6215768;28;20353;-90
2023/05/24 13:41:15;;;;;;;2.97;1.83;;;;;;;16.23;60.08;97833.66;6193132;28;20241;-90
2023/05/24 13:44:18;;;;;;;4.63;1.70;;;;;;;15.95;61.56;97784.81;6209666;28;20274;-90
2023/05/24 13:47:20;;;;;;;2.10;1.90;;;;;;;16.84;60.73;97930.25;6220863;28;20243;-90
2023/05/24 13:50:40;;;;;;;2.53;2.00;;;;;;;15.33;61.66;97686.69;6224940;28;20236;-90
2023/05/24 13:53:43;;;;;;;3.23;2.00;;;;;;;14.76;62.32;97607.38;6219423;28;20230;-90
2023/05/24 13:56:47;;;;;;;4.50;2.07;;;;;;;15.11;61.34;97657.47;6200506;28;20232;-90
2023/05/24 13:59:50;;;;;;;2.17;1.83;;;;;;;14.89;61.84;97614.88;6203794;28;20604;-89
2023/05/24 14:02:52;;;;;;;4.60;1.90;;;;;;;16.47;60.92;97840.00;6184683;28;20228;-90
2023/05/24 14:05:54;;;;;;;2.20;1.80;;;;;;;16.07;59.32;97733.47;6199635;28;20607;-90
2023/05/24 14:08:59;;;;;;;3.27;1.90;;;;;;;16.00;61.04;97716.81;6209385;28;20614;-90
2023/05/24 14:12:06;;;;;;;2.90;1.97;;;;;;;15.83;61.52;97638.47;6225442;28;20217;-90
2023/05/24 14:15:09;;;;;;;2.73;1.80;;;;;;;16.35;60.00;97731.16;6233887;28;20239;-89
2023/05/24 14:18:12;;;;;;;1.90;1.80;;;;;;;17.61;61.34;97892.88;6217743;28;20303;-90
2023/05/24 14:21:14;;;;;;;3.30;2.00;;;;;;;17.56;60.16;97892.94;6217465;28;20212;-89
2023/05/24 14:24:17;;;;;;;2.00;1.80;;;;;;;16.21;60.45;97704.91;6216061;28;20242;-90
2023/05/24 14:27:19;;;;;;;2.17;1.77;;;;;;;15.86;60.43;97660.22;6230548;28;20299;-90
2023/05/24 14:30:22;;;;;;;2.00;1.80;;;;;;;16.91;59.02;97793.53;6230074;28;20242;-90